sensor_id;sensor_type;location;lat;lon;timestamp;P1;durP1;ratioP1;P2;durP2;ratioP2
826;SDS011;395;48.132;11.608;2023-08-12T00:01:26;4.80;;;4.47;;
826;SDS011;395;48.132;11.608;2023-08-12T00:03:53;5.37;;;4.87;;
826;SDS011;395;48.132;11.608;2023-08-12T00:06:19;5.70;;;4.30;;
826;SDS011;395;48.132;11.608;2023-08-12T00:08:45;4.93;;;4.53;;
826;SDS011;395;48.132;11.608;2023-08-12T00:11:11;4.93;;;4.00;;
826;SDS011;395;48.132;11.608;2023-08-12T00:13:37;5.07;;;4.67;;
826;SDS011;395;48.132;11.608;2023-08-12T00:16:03;6.03;;;4.70;;
826;SDS011;395;48.132;11.608;2023-08-12T00:18:29;5.10;;;4.70;;
826;SDS011;395;48.132;11.608;2023-08-12T00:21:01;5.27;;;4.70;;
826;SDS011;395;48.132;11.608;2023-08-12T00:23:29;4.57;;;4.27;;
826;SDS011;395;48.132;11.608;2023-08-12T00:25:57;6.90;;;4.70;;
826;SDS011;395;48.132;11.608;2023-08-12T00:28:23;4.90;;;4.50;;
826;SDS011;395;48.132;11.608;2023-08-12T00:30:49;4.63;;;4.23;;
826;SDS011;395;48.132;11.608;2023-08-12T00:33:15;5.40;;;5.00;;
826;SDS011;395;48.132;11.608;2023-08-12T00:35:43;4.60;;;4.20;;
826;SDS011;395;48.132;11.608;2023-08-12T00:38:09;5.60;;;5.20;;
826;SDS011;395;48.132;11.608;2023-08-12T00:40:35;5.60;;;5.10;;
826;SDS011;395;48.132;11.608;2023-08-12T00:43:01;5.40;;;4.90;;
826;SDS011;395;48.132;11.608;2023-08-12T00:45:28;5.23;;;4.83;;
826;SDS011;395;48.132;11.608;2023-08-12T00:47:54;5.93;;;5.43;;
826;SDS011;395;48.132;11.608;2023-08-12T00:50:21;5.13;;;4.63;;
826;SDS011;395;48.132;11.608;2023-08-12T00:52:47;5.30;;;4.83;;
826;SDS011;395;48.132;11.608;2023-08-12T00:55:13;5.70;;;5.10;;
826;SDS011;395;48.132;11.608;2023-08-12T00:57:39;5.63;;;5.07;;
826;SDS011;395;48.132;11.608;2023-08-12T01:00:06;5.60;;;5.10;;
826;SDS011;395;48.132;11.608;2023-08-12T01:02:33;4.90;;;4.50;;
826;SDS011;395;48.132;11.608;2023-08-12T01:04:59;5.73;;;5.13;;
826;SDS011;395;48.132;11.608;2023-08-12T01:07:25;5.13;;;4.63;;
826;SDS011;395;48.132;11.608;2023-08-12T01:09:51;5.30;;;4.90;;
826;SDS011;395;48.132;11.608;2023-08-12T01:14:51;5.27;;;4.80;;
826;SDS011;395;48.132;11.608;2023-08-12T01:17:19;6.73;;;4.93;;
826;SDS011;395;48.132;11.608;2023-08-12T01:19:47;5.27;;;4.70;;
826;SDS011;395;48.132;11.608;2023-08-12T01:22:13;6.30;;;5.30;;
826;SDS011;395;48.132;11.608;2023-08-12T01:24:40;4.40;;;4.00;;
826;SDS011;395;48.132;11.608;2023-08-12T01:27:07;5.17;;;4.77;;
826;SDS011;395;48.132;11.608;2023-08-12T01:29:34;5.40;;;4.87;;
826;SDS011;395;48.132;11.608;2023-08-12T01:32:04;5.57;;;5.07;;
826;SDS011;395;48.132;11.608;2023-08-12T01:34:44;5.60;;;5.10;;
826;SDS011;395;48.132;11.608;2023-08-12T01:37:13;5.07;;;4.63;;
826;SDS011;395;48.132;11.608;2023-08-12T01:39:40;5.30;;;4.80;;
826;SDS011;395;48.132;11.608;2023-08-12T01:42:08;5.73;;;5.20;;
826;SDS011;395;48.132;11.608;2023-08-12T01:44:34;5.53;;;5.13;;
826;SDS011;395;48.132;11.608;2023-08-12T01:47:00;5.30;;;4.87;;
826;SDS011;395;48.132;11.608;2023-08-12T01:49:26;6.30;;;4.23;;
826;SDS011;395;48.132;11.608;2023-08-12T01:51:52;5.27;;;4.80;;
826;SDS011;395;48.132;11.608;2023-08-12T01:54:18;5.27;;;4.87;;
826;SDS011;395;48.132;11.608;2023-08-12T01:56:45;5.27;;;4.80;;
826;SDS011;395;48.132;11.608;2023-08-12T01:59:11;5.03;;;4.63;;
826;SDS011;395;48.132;11.608;2023-08-12T02:01:37;5.70;;;5.20;;
826;SDS011;395;48.132;11.608;2023-08-12T02:04:03;5.00;;;4.60;;
826;SDS011;395;48.132;11.608;2023-08-12T02:06:29;5.73;;;5.23;;
826;SDS011;395;48.132;11.608;2023-08-12T02:08:55;5.37;;;4.87;;
826;SDS011;395;48.132;11.608;2023-08-12T02:11:20;6.50;;;5.80;;
826;SDS011;395;48.132;11.608;2023-08-12T02:13:47;6.77;;;5.30;;
826;SDS011;395;48.132;11.608;2023-08-12T02:16:12;5.77;;;5.27;;
826;SDS011;395;48.132;11.608;2023-08-12T02:18:38;6.20;;;5.70;;
826;SDS011;395;48.132;11.608;2023-08-12T02:21:04;6.30;;;5.30;;
826;SDS011;395;48.132;11.608;2023-08-12T02:23:30;5.93;;;5.43;;
826;SDS011;395;48.132;11.608;2023-08-12T02:25:56;5.73;;;5.20;;
826;SDS011;395;48.132;11.608;2023-08-12T02:28:22;4.77;;;4.37;;
826;SDS011;395;48.132;11.608;2023-08-12T02:30:48;5.57;;;5.07;;
826;SDS011;395;48.132;11.608;2023-08-12T02:33:14;5.57;;;5.07;;
826;SDS011;395;48.132;11.608;2023-08-12T02:35:40;5.40;;;5.00;;
826;SDS011;395;48.132;11.608;2023-08-12T02:38:07;5.47;;;4.87;;
826;SDS011;395;48.132;11.608;2023-08-12T02:40:33;5.27;;;4.77;;
826;SDS011;395;48.132;11.608;2023-08-12T02:42:59;5.37;;;4.87;;
826;SDS011;395;48.132;11.608;2023-08-12T02:45:25;5.80;;;5.30;;
826;SDS011;395;48.132;11.608;2023-08-12T02:47:51;5.27;;;4.87;;
826;SDS011;395;48.132;11.608;2023-08-12T02:50:17;6.33;;;5.83;;
826;SDS011;395;48.132;11.608;2023-08-12T02:52:43;6.47;;;5.87;;
826;SDS011;395;48.132;11.608;2023-08-12T02:55:09;5.83;;;5.27;;
826;SDS011;395;48.132;11.608;2023-08-12T02:57:36;5.60;;;4.90;;
826;SDS011;395;48.132;11.608;2023-08-12T03:00:02;5.90;;;5.30;;
826;SDS011;395;48.132;11.608;2023-08-12T03:02:29;6.57;;;5.97;;
826;SDS011;395;48.132;11.608;2023-08-12T03:04:55;5.97;;;5.47;;
826;SDS011;395;48.132;11.608;2023-08-12T03:07:21;7.13;;;4.87;;
826;SDS011;395;48.132;11.608;2023-08-12T03:09:47;5.77;;;5.27;;
826;SDS011;395;48.132;11.608;2023-08-12T03:12:13;6.97;;;5.43;;
826;SDS011;395;48.132;11.608;2023-08-12T03:14:39;6.80;;;5.23;;
826;SDS011;395;48.132;11.608;2023-08-12T03:17:05;6.40;;;5.50;;
826;SDS011;395;48.132;11.608;2023-08-12T03:19:31;6.83;;;5.70;;
826;SDS011;395;48.132;11.608;2023-08-12T03:21:57;5.80;;;5.30;;
826;SDS011;395;48.132;11.608;2023-08-12T03:24:23;6.30;;;5.80;;
826;SDS011;395;48.132;11.608;2023-08-12T03:26:49;6.30;;;5.60;;
826;SDS011;395;48.132;11.608;2023-08-12T03:29:15;5.80;;;5.30;;
826;SDS011;395;48.132;11.608;2023-08-12T03:31:41;5.83;;;5.23;;
826;SDS011;395;48.132;11.608;2023-08-12T03:34:07;6.23;;;4.77;;
826;SDS011;395;48.132;11.608;2023-08-12T03:36:33;6.03;;;5.53;;
826;SDS011;395;48.132;11.608;2023-08-12T03:38:59;6.00;;;5.03;;
826;SDS011;395;48.132;11.608;2023-08-12T03:41:25;5.87;;;5.37;;
826;SDS011;395;48.132;11.608;2023-08-12T03:43:51;5.30;;;4.90;;
826;SDS011;395;48.132;11.608;2023-08-12T03:46:17;5.63;;;5.13;;
826;SDS011;395;48.132;11.608;2023-08-12T03:48:43;6.83;;;5.20;;
826;SDS011;395;48.132;11.608;2023-08-12T03:51:09;7.30;;;5.10;;
826;SDS011;395;48.132;11.608;2023-08-12T03:53:35;5.53;;;5.07;;
826;SDS011;395;48.132;11.608;2023-08-12T03:56:01;5.77;;;5.27;;
826;SDS011;395;48.132;11.608;2023-08-12T03:58:27;5.70;;;5.20;;
826;SDS011;395;48.132;11.608;2023-08-12T04:00:53;7.07;;;5.70;;
826;SDS011;395;48.132;11.608;2023-08-12T04:03:19;6.10;;;5.50;;
826;SDS011;395;48.132;11.608;2023-08-12T04:05:48;5.93;;;4.80;;
826;SDS011;395;48.132;11.608;2023-08-12T04:08:15;5.83;;;5.23;;
826;SDS011;395;48.132;11.608;2023-08-12T04:10:43;7.17;;;5.10;;
826;SDS011;395;48.132;11.608;2023-08-12T04:13:09;5.93;;;5.40;;
826;SDS011;395;48.132;11.608;2023-08-12T04:15:35;5.30;;;4.87;;
826;SDS011;395;48.132;11.608;2023-08-12T04:18:01;5.37;;;4.63;;
826;SDS011;395;48.132;11.608;2023-08-12T04:20:28;5.20;;;4.70;;
826;SDS011;395;48.132;11.608;2023-08-12T04:22:54;4.97;;;4.57;;
826;SDS011;395;48.132;11.608;2023-08-12T04:25:20;4.73;;;4.33;;
826;SDS011;395;48.132;11.608;2023-08-12T04:27:46;5.63;;;4.60;;
826;SDS011;395;48.132;11.608;2023-08-12T04:30:13;6.00;;;5.40;;
826;SDS011;395;48.132;11.608;2023-08-12T04:32:39;5.00;;;4.50;;
826;SDS011;395;48.132;11.608;2023-08-12T04:35:05;5.97;;;5.37;;
826;SDS011;395;48.132;11.608;2023-08-12T04:37:32;5.53;;;4.40;;
826;SDS011;395;48.132;11.608;2023-08-12T04:39:58;4.53;;;4.13;;
826;SDS011;395;48.132;11.608;2023-08-12T04:42:25;5.80;;;4.83;;
826;SDS011;395;48.132;11.608;2023-08-12T04:44:51;5.03;;;4.63;;
826;SDS011;395;48.132;11.608;2023-08-12T04:47:17;5.40;;;5.00;;
826;SDS011;395;48.132;11.608;2023-08-12T04:49:43;6.50;;;5.20;;
826;SDS011;395;48.132;11.608;2023-08-12T04:52:10;5.60;;;5.10;;
826;SDS011;395;48.132;11.608;2023-08-12T04:54:36;4.63;;;4.07;;
826;SDS011;395;48.132;11.608;2023-08-12T04:57:02;6.10;;;4.60;;
826;SDS011;395;48.132;11.608;2023-08-12T04:59:28;5.10;;;4.53;;
826;SDS011;395;48.132;11.608;2023-08-12T05:01:54;6.17;;;5.20;;
826;SDS011;395;48.132;11.608;2023-08-12T05:04:20;5.40;;;5.00;;
826;SDS011;395;48.132;11.608;2023-08-12T05:06:46;5.50;;;4.90;;
826;SDS011;395;48.132;11.608;2023-08-12T05:09:12;4.63;;;4.30;;
826;SDS011;395;48.132;11.608;2023-08-12T05:11:38;5.00;;;4.60;;
826;SDS011;395;48.132;11.608;2023-08-12T05:14:04;5.40;;;4.90;;
826;SDS011;395;48.132;11.608;2023-08-12T05:16:30;6.07;;;5.00;;
826;SDS011;395;48.132;11.608;2023-08-12T05:18:56;5.23;;;4.83;;
826;SDS011;395;48.132;11.608;2023-08-12T05:21:22;5.60;;;5.03;;
826;SDS011;395;48.132;11.608;2023-08-12T05:23:48;8.23;;;4.90;;
826;SDS011;395;48.132;11.608;2023-08-12T05:26:14;6.03;;;5.00;;
826;SDS011;395;48.132;11.608;2023-08-12T05:28:40;6.60;;;5.90;;
826;SDS011;395;48.132;11.608;2023-08-12T05:31:07;6.77;;;5.70;;
826;SDS011;395;48.132;11.608;2023-08-12T05:33:33;6.40;;;4.40;;
826;SDS011;395;48.132;11.608;2023-08-12T05:35:59;5.53;;;5.07;;
826;SDS011;395;48.132;11.608;2023-08-12T05:38:25;6.20;;;4.87;;
826;SDS011;395;48.132;11.608;2023-08-12T05:40:51;7.23;;;5.13;;
826;SDS011;395;48.132;11.608;2023-08-12T05:43:17;7.80;;;5.13;;
826;SDS011;395;48.132;11.608;2023-08-12T05:45:43;8.50;;;5.60;;
826;SDS011;395;48.132;11.608;2023-08-12T05:48:09;5.40;;;4.50;;
826;SDS011;395;48.132;11.608;2023-08-12T05:50:35;6.50;;;5.43;;
826;SDS011;395;48.132;11.608;2023-08-12T05:53:01;4.80;;;4.40;;
826;SDS011;395;48.132;11.608;2023-08-12T05:55:27;6.73;;;5.40;;
826;SDS011;395;48.132;11.608;2023-08-12T05:57:53;5.00;;;4.50;;
826;SDS011;395;48.132;11.608;2023-08-12T06:00:19;5.67;;;5.13;;
826;SDS011;395;48.132;11.608;2023-08-12T06:02:45;5.30;;;4.90;;
826;SDS011;395;48.132;11.608;2023-08-12T06:05:11;5.20;;;4.60;;
826;SDS011;395;48.132;11.608;2023-08-12T06:07:37;8.60;;;5.07;;
826;SDS011;395;48.132;11.608;2023-08-12T06:10:03;5.00;;;4.60;;
826;SDS011;395;48.132;11.608;2023-08-12T06:12:29;4.77;;;4.37;;
826;SDS011;395;48.132;11.608;2023-08-12T06:14:55;5.20;;;4.70;;
826;SDS011;395;48.132;11.608;2023-08-12T06:17:22;6.87;;;4.90;;
826;SDS011;395;48.132;11.608;2023-08-12T06:19:47;4.83;;;4.43;;
826;SDS011;395;48.132;11.608;2023-08-12T06:22:13;6.03;;;4.80;;
826;SDS011;395;48.132;11.608;2023-08-12T06:24:39;5.20;;;4.80;;
826;SDS011;395;48.132;11.608;2023-08-12T06:27:05;4.80;;;4.40;;
826;SDS011;395;48.132;11.608;2023-08-12T06:29:31;5.07;;;4.57;;
826;SDS011;395;48.132;11.608;2023-08-12T06:31:57;5.33;;;4.57;;
826;SDS011;395;48.132;11.608;2023-08-12T06:34:23;5.27;;;4.87;;
826;SDS011;395;48.132;11.608;2023-08-12T06:36:49;5.03;;;4.57;;
826;SDS011;395;48.132;11.608;2023-08-12T06:39:15;4.97;;;4.37;;
826;SDS011;395;48.132;11.608;2023-08-12T06:41:41;5.47;;;4.30;;
826;SDS011;395;48.132;11.608;2023-08-12T06:44:07;5.60;;;3.73;;
826;SDS011;395;48.132;11.608;2023-08-12T06:46:33;4.53;;;4.13;;
826;SDS011;395;48.132;11.608;2023-08-12T06:48:59;4.93;;;4.43;;
826;SDS011;395;48.132;11.608;2023-08-12T06:51:25;4.20;;;3.90;;
826;SDS011;395;48.132;11.608;2023-08-12T06:53:51;4.50;;;4.10;;
826;SDS011;395;48.132;11.608;2023-08-12T06:56:17;4.23;;;3.83;;
826;SDS011;395;48.132;11.608;2023-08-12T06:58:43;4.40;;;4.00;;
826;SDS011;395;48.132;11.608;2023-08-12T07:01:09;4.63;;;4.23;;
826;SDS011;395;48.132;11.608;2023-08-12T07:03:35;4.47;;;4.17;;
826;SDS011;395;48.132;11.608;2023-08-12T07:06:01;4.57;;;4.20;;
826;SDS011;395;48.132;11.608;2023-08-12T07:08:27;4.80;;;4.40;;
826;SDS011;395;48.132;11.608;2023-08-12T07:10:53;4.47;;;4.17;;
826;SDS011;395;48.132;11.608;2023-08-12T07:13:19;4.53;;;4.17;;
826;SDS011;395;48.132;11.608;2023-08-12T07:15:45;4.30;;;4.00;;
826;SDS011;395;48.132;11.608;2023-08-12T07:18:11;5.33;;;4.83;;
826;SDS011;395;48.132;11.608;2023-08-12T07:20:37;4.73;;;4.33;;
826;SDS011;395;48.132;11.608;2023-08-12T07:23:03;4.53;;;3.83;;
826;SDS011;395;48.132;11.608;2023-08-12T07:25:29;4.57;;;4.17;;
826;SDS011;395;48.132;11.608;2023-08-12T07:27:55;4.90;;;4.50;;
826;SDS011;395;48.132;11.608;2023-08-12T07:30:21;5.23;;;4.73;;
826;SDS011;395;48.132;11.608;2023-08-12T07:32:47;4.87;;;3.80;;
826;SDS011;395;48.132;11.608;2023-08-12T07:35:14;4.33;;;4.03;;
826;SDS011;395;48.132;11.608;2023-08-12T07:37:40;4.90;;;4.50;;
826;SDS011;395;48.132;11.608;2023-08-12T07:40:06;4.63;;;4.33;;
826;SDS011;395;48.132;11.608;2023-08-12T07:42:33;5.13;;;4.63;;
826;SDS011;395;48.132;11.608;2023-08-12T07:44:59;4.87;;;4.47;;
826;SDS011;395;48.132;11.608;2023-08-12T07:47:25;4.70;;;4.40;;
826;SDS011;395;48.132;11.608;2023-08-12T07:49:51;4.60;;;4.30;;
826;SDS011;395;48.132;11.608;2023-08-12T07:52:17;4.73;;;4.40;;
826;SDS011;395;48.132;11.608;2023-08-12T07:54:43;4.60;;;4.20;;
826;SDS011;395;48.132;11.608;2023-08-12T07:57:09;5.17;;;4.67;;
826;SDS011;395;48.132;11.608;2023-08-12T07:59:35;4.77;;;4.47;;
826;SDS011;395;48.132;11.608;2023-08-12T08:02:01;4.30;;;4.00;;
826;SDS011;395;48.132;11.608;2023-08-12T08:04:28;4.20;;;3.90;;
826;SDS011;395;48.132;11.608;2023-08-12T08:06:54;4.20;;;3.90;;
826;SDS011;395;48.132;11.608;2023-08-12T08:09:20;5.80;;;5.30;;
826;SDS011;395;48.132;11.608;2023-08-12T08:11:46;4.53;;;4.23;;
826;SDS011;395;48.132;11.608;2023-08-12T08:14:12;5.03;;;4.53;;
826;SDS011;395;48.132;11.608;2023-08-12T08:16:38;5.13;;;4.60;;
826;SDS011;395;48.132;11.608;2023-08-12T08:19:06;5.10;;;4.70;;
826;SDS011;395;48.132;11.608;2023-08-12T08:21:34;4.87;;;4.40;;
826;SDS011;395;48.132;11.608;2023-08-12T08:24:00;4.50;;;4.20;;
826;SDS011;395;48.132;11.608;2023-08-12T08:26:26;4.77;;;4.37;;
826;SDS011;395;48.132;11.608;2023-08-12T08:28:52;4.03;;;3.73;;
826;SDS011;395;48.132;11.608;2023-08-12T08:31:18;4.83;;;4.43;;
826;SDS011;395;48.132;11.608;2023-08-12T08:33:44;5.23;;;4.83;;
826;SDS011;395;48.132;11.608;2023-08-12T08:36:10;4.80;;;4.40;;
826;SDS011;395;48.132;11.608;2023-08-12T08:38:36;4.50;;;4.20;;
826;SDS011;395;48.132;11.608;2023-08-12T08:41:02;4.93;;;4.37;;
826;SDS011;395;48.132;11.608;2023-08-12T08:43:31;4.23;;;3.93;;
826;SDS011;395;48.132;11.608;2023-08-12T08:45:58;4.13;;;3.77;;
826;SDS011;395;48.132;11.608;2023-08-12T08:48:24;4.20;;;3.50;;
826;SDS011;395;48.132;11.608;2023-08-12T08:50:50;4.10;;;3.80;;
826;SDS011;395;48.132;11.608;2023-08-12T08:53:17;4.70;;;4.40;;
826;SDS011;395;48.132;11.608;2023-08-12T08:55:43;4.03;;;3.73;;
826;SDS011;395;48.132;11.608;2023-08-12T08:58:09;4.37;;;4.07;;
826;SDS011;395;48.132;11.608;2023-08-12T09:00:36;4.50;;;4.17;;
826;SDS011;395;48.132;11.608;2023-08-12T09:03:04;4.60;;;4.30;;
826;SDS011;395;48.132;11.608;2023-08-12T09:05:30;4.60;;;4.30;;
826;SDS011;395;48.132;11.608;2023-08-12T09:07:56;4.60;;;4.30;;
826;SDS011;395;48.132;11.608;2023-08-12T09:10:24;5.27;;;4.77;;
826;SDS011;395;48.132;11.608;2023-08-12T09:12:51;4.93;;;4.53;;
826;SDS011;395;48.132;11.608;2023-08-12T09:15:17;4.90;;;4.50;;
826;SDS011;395;48.132;11.608;2023-08-12T09:17:44;4.67;;;4.37;;
826;SDS011;395;48.132;11.608;2023-08-12T09:20:10;5.00;;;4.60;;
826;SDS011;395;48.132;11.608;2023-08-12T09:22:40;5.07;;;4.77;;
826;SDS011;395;48.132;11.608;2023-08-12T09:25:07;4.50;;;4.20;;
826;SDS011;395;48.132;11.608;2023-08-12T09:27:33;4.30;;;4.00;;
826;SDS011;395;48.132;11.608;2023-08-12T09:30:02;3.70;;;3.40;;
826;SDS011;395;48.132;11.608;2023-08-12T09:32:28;4.30;;;4.00;;
826;SDS011;395;48.132;11.608;2023-08-12T09:34:55;4.53;;;3.30;;
826;SDS011;395;48.132;11.608;2023-08-12T09:37:21;3.57;;;3.37;;
826;SDS011;395;48.132;11.608;2023-08-12T09:39:48;4.43;;;4.03;;
826;SDS011;395;48.132;11.608;2023-08-12T09:42:15;4.60;;;4.20;;
826;SDS011;395;48.132;11.608;2023-08-12T09:44:41;3.80;;;3.50;;
826;SDS011;395;48.132;11.608;2023-08-12T09:47:07;4.97;;;4.57;;
826;SDS011;395;48.132;11.608;2023-08-12T09:49:34;4.23;;;3.93;;
826;SDS011;395;48.132;11.608;2023-08-12T09:52:00;5.23;;;4.20;;
826;SDS011;395;48.132;11.608;2023-08-12T09:54:27;4.40;;;4.00;;
826;SDS011;395;48.132;11.608;2023-08-12T09:56:57;4.50;;;3.80;;
826;SDS011;395;48.132;11.608;2023-08-12T09:59:32;4.53;;;4.23;;
826;SDS011;395;48.132;11.608;2023-08-12T10:01:59;4.50;;;4.20;;
826;SDS011;395;48.132;11.608;2023-08-12T10:04:29;4.77;;;4.47;;
826;SDS011;395;48.132;11.608;2023-08-12T10:06:58;4.57;;;4.27;;
826;SDS011;395;48.132;11.608;2023-08-12T10:09:24;4.60;;;4.30;;
826;SDS011;395;48.132;11.608;2023-08-12T10:11:51;5.00;;;4.60;;
826;SDS011;395;48.132;11.608;2023-08-12T10:14:18;4.50;;;4.13;;
826;SDS011;395;48.132;11.608;2023-08-12T10:16:45;4.80;;;4.50;;
826;SDS011;395;48.132;11.608;2023-08-12T10:19:12;5.30;;;4.90;;
826;SDS011;395;48.132;11.608;2023-08-12T10:21:38;4.80;;;4.40;;
826;SDS011;395;48.132;11.608;2023-08-12T10:24:05;4.33;;;4.03;;
826;SDS011;395;48.132;11.608;2023-08-12T10:26:32;4.80;;;4.50;;
826;SDS011;395;48.132;11.608;2023-08-12T10:28:59;5.07;;;4.67;;
826;SDS011;395;48.132;11.608;2023-08-12T10:31:28;4.57;;;4.27;;
826;SDS011;395;48.132;11.608;2023-08-12T10:33:54;7.70;;;4.60;;
826;SDS011;395;48.132;11.608;2023-08-12T10:36:20;4.60;;;4.20;;
826;SDS011;395;48.132;11.608;2023-08-12T10:38:46;4.50;;;4.20;;
826;SDS011;395;48.132;11.608;2023-08-12T10:43:48;4.57;;;4.17;;
826;SDS011;395;48.132;11.608;2023-08-12T10:46:31;4.47;;;4.07;;
826;SDS011;395;48.132;11.608;2023-08-12T10:49:07;4.50;;;4.10;;
826;SDS011;395;48.132;11.608;2023-08-12T10:52:06;5.37;;;4.90;;
826;SDS011;395;48.132;11.608;2023-08-12T10:54:26;4.93;;;4.50;;
826;SDS011;395;48.132;11.608;2023-08-12T11:02:21;4.60;;;4.30;;
826;SDS011;395;48.132;11.608;2023-08-12T11:07:17;5.17;;;4.77;;
826;SDS011;395;48.132;11.608;2023-08-12T11:09:44;4.60;;;4.30;;
826;SDS011;395;48.132;11.608;2023-08-12T11:12:10;5.20;;;4.80;;
826;SDS011;395;48.132;11.608;2023-08-12T11:14:49;5.30;;;4.90;;
826;SDS011;395;48.132;11.608;2023-08-12T11:17:18;5.20;;;4.80;;
826;SDS011;395;48.132;11.608;2023-08-12T11:19:44;4.93;;;4.53;;
826;SDS011;395;48.132;11.608;2023-08-12T11:22:11;4.87;;;4.50;;
826;SDS011;395;48.132;11.608;2023-08-12T11:24:39;5.80;;;5.33;;
826;SDS011;395;48.132;11.608;2023-08-12T11:27:09;4.77;;;4.47;;
826;SDS011;395;48.132;11.608;2023-08-12T11:29:36;4.60;;;4.30;;
826;SDS011;395;48.132;11.608;2023-08-12T11:32:03;4.50;;;4.10;;
826;SDS011;395;48.132;11.608;2023-08-12T11:34:29;4.20;;;3.90;;
826;SDS011;395;48.132;11.608;2023-08-12T11:36:55;4.03;;;3.73;;
826;SDS011;395;48.132;11.608;2023-08-12T11:39:21;4.00;;;3.70;;
826;SDS011;395;48.132;11.608;2023-08-12T11:41:48;4.00;;;3.63;;
826;SDS011;395;48.132;11.608;2023-08-12T11:44:15;3.87;;;3.57;;
826;SDS011;395;48.132;11.608;2023-08-12T11:46:42;4.77;;;4.47;;
826;SDS011;395;48.132;11.608;2023-08-12T11:49:08;4.97;;;4.10;;
826;SDS011;395;48.132;11.608;2023-08-12T11:51:34;4.10;;;3.70;;
826;SDS011;395;48.132;11.608;2023-08-12T11:54:01;4.20;;;3.90;;
826;SDS011;395;48.132;11.608;2023-08-12T11:56:27;3.73;;;3.43;;
826;SDS011;395;48.132;11.608;2023-08-12T11:58:53;3.87;;;3.33;;
826;SDS011;395;48.132;11.608;2023-08-12T12:01:20;3.73;;;3.43;;
826;SDS011;395;48.132;11.608;2023-08-12T12:03:53;4.03;;;3.47;;
826;SDS011;395;48.132;11.608;2023-08-12T12:06:33;3.27;;;3.03;;
826;SDS011;395;48.132;11.608;2023-08-12T12:09:06;3.60;;;3.30;;
826;SDS011;395;48.132;11.608;2023-08-12T12:11:35;3.40;;;3.10;;
826;SDS011;395;48.132;11.608;2023-08-12T12:14:04;3.03;;;2.83;;
826;SDS011;395;48.132;11.608;2023-08-12T12:16:40;3.37;;;2.90;;
826;SDS011;395;48.132;11.608;2023-08-12T12:19:20;3.67;;;3.37;;
826;SDS011;395;48.132;11.608;2023-08-12T12:21:47;3.57;;;3.27;;
826;SDS011;395;48.132;11.608;2023-08-12T12:24:13;4.00;;;3.70;;
826;SDS011;395;48.132;11.608;2023-08-12T12:26:39;4.07;;;3.67;;
826;SDS011;395;48.132;11.608;2023-08-12T12:29:06;3.80;;;3.50;;
826;SDS011;395;48.132;11.608;2023-08-12T12:31:33;3.70;;;3.40;;
826;SDS011;395;48.132;11.608;2023-08-12T12:33:59;3.70;;;3.37;;
826;SDS011;395;48.132;11.608;2023-08-12T12:36:25;3.20;;;3.00;;
826;SDS011;395;48.132;11.608;2023-08-12T12:38:51;3.90;;;3.60;;
826;SDS011;395;48.132;11.608;2023-08-12T12:41:17;3.90;;;3.60;;
826;SDS011;395;48.132;11.608;2023-08-12T12:43:44;3.87;;;3.57;;
826;SDS011;395;48.132;11.608;2023-08-12T12:46:10;3.80;;;3.60;;
826;SDS011;395;48.132;11.608;2023-08-12T12:48:36;3.70;;;3.40;;
826;SDS011;395;48.132;11.608;2023-08-12T12:51:02;3.80;;;3.50;;
826;SDS011;395;48.132;11.608;2023-08-12T12:53:28;4.00;;;3.70;;
826;SDS011;395;48.132;11.608;2023-08-12T12:55:54;4.10;;;3.70;;
826;SDS011;395;48.132;11.608;2023-08-12T12:58:22;3.33;;;3.13;;
826;SDS011;395;48.132;11.608;2023-08-12T13:00:48;3.70;;;3.40;;
826;SDS011;395;48.132;11.608;2023-08-12T13:03:14;5.17;;;3.63;;
826;SDS011;395;48.132;11.608;2023-08-12T13:05:40;3.80;;;3.50;;
826;SDS011;395;48.132;11.608;2023-08-12T13:08:06;6.13;;;3.97;;
826;SDS011;395;48.132;11.608;2023-08-12T13:10:33;4.43;;;4.03;;
826;SDS011;395;48.132;11.608;2023-08-12T13:12:59;4.50;;;4.13;;
826;SDS011;395;48.132;11.608;2023-08-12T13:15:25;4.30;;;4.00;;
826;SDS011;395;48.132;11.608;2023-08-12T13:17:51;4.70;;;3.70;;
826;SDS011;395;48.132;11.608;2023-08-12T13:20:17;4.83;;;4.43;;
826;SDS011;395;48.132;11.608;2023-08-12T13:22:43;4.93;;;3.90;;
826;SDS011;395;48.132;11.608;2023-08-12T13:25:09;4.30;;;4.00;;
826;SDS011;395;48.132;11.608;2023-08-12T13:27:35;4.57;;;4.10;;
826;SDS011;395;48.132;11.608;2023-08-12T13:30:01;3.90;;;3.60;;
826;SDS011;395;48.132;11.608;2023-08-12T13:32:29;4.33;;;3.57;;
826;SDS011;395;48.132;11.608;2023-08-12T13:34:55;4.60;;;4.00;;
826;SDS011;395;48.132;11.608;2023-08-12T13:37:21;3.60;;;3.40;;
826;SDS011;395;48.132;11.608;2023-08-12T13:39:47;3.70;;;3.40;;
826;SDS011;395;48.132;11.608;2023-08-12T13:42:13;4.27;;;3.93;;
826;SDS011;395;48.132;11.608;2023-08-12T13:44:39;4.23;;;3.93;;
826;SDS011;395;48.132;11.608;2023-08-12T13:47:05;3.70;;;3.40;;
826;SDS011;395;48.132;11.608;2023-08-12T13:49:31;3.47;;;3.20;;
826;SDS011;395;48.132;11.608;2023-08-12T13:51:57;3.90;;;3.60;;
826;SDS011;395;48.132;11.608;2023-08-12T13:54:24;3.80;;;3.60;;
826;SDS011;395;48.132;11.608;2023-08-12T13:56:50;4.00;;;3.60;;
826;SDS011;395;48.132;11.608;2023-08-12T13:59:16;3.93;;;3.50;;
826;SDS011;395;48.132;11.608;2023-08-12T14:01:42;3.87;;;3.57;;
826;SDS011;395;48.132;11.608;2023-08-12T14:04:08;3.87;;;3.57;;
826;SDS011;395;48.132;11.608;2023-08-12T14:06:34;5.00;;;3.80;;
826;SDS011;395;48.132;11.608;2023-08-12T14:09:00;4.03;;;3.60;;
826;SDS011;395;48.132;11.608;2023-08-12T14:11:27;3.73;;;3.53;;
826;SDS011;395;48.132;11.608;2023-08-12T14:13:53;3.83;;;3.53;;
826;SDS011;395;48.132;11.608;2023-08-12T14:16:19;3.70;;;3.40;;
826;SDS011;395;48.132;11.608;2023-08-12T14:18:45;3.60;;;3.30;;
826;SDS011;395;48.132;11.608;2023-08-12T14:21:11;3.53;;;3.27;;
826;SDS011;395;48.132;11.608;2023-08-12T14:23:37;3.57;;;3.33;;
826;SDS011;395;48.132;11.608;2023-08-12T14:26:03;3.50;;;3.30;;
826;SDS011;395;48.132;11.608;2023-08-12T14:28:29;3.80;;;3.47;;
826;SDS011;395;48.132;11.608;2023-08-12T14:30:55;3.57;;;3.30;;
826;SDS011;395;48.132;11.608;2023-08-12T14:33:21;4.13;;;3.83;;
826;SDS011;395;48.132;11.608;2023-08-12T14:35:49;4.50;;;3.50;;
826;SDS011;395;48.132;11.608;2023-08-12T14:38:16;8.80;;;3.63;;
826;SDS011;395;48.132;11.608;2023-08-12T14:40:42;4.00;;;3.70;;
826;SDS011;395;48.132;11.608;2023-08-12T14:43:12;4.80;;;4.30;;
826;SDS011;395;48.132;11.608;2023-08-12T14:45:38;4.20;;;3.80;;
826;SDS011;395;48.132;11.608;2023-08-12T14:48:04;3.93;;;3.63;;
826;SDS011;395;48.132;11.608;2023-08-12T14:50:30;5.40;;;4.00;;
826;SDS011;395;48.132;11.608;2023-08-12T14:52:56;4.47;;;4.07;;
826;SDS011;395;48.132;11.608;2023-08-12T14:55:22;5.10;;;4.00;;
826;SDS011;395;48.132;11.608;2023-08-12T14:57:48;4.50;;;4.20;;
826;SDS011;395;48.132;11.608;2023-08-12T15:00:14;4.33;;;4.00;;
826;SDS011;395;48.132;11.608;2023-08-12T15:02:40;6.03;;;3.93;;
826;SDS011;395;48.132;11.608;2023-08-12T15:05:06;6.53;;;4.23;;
826;SDS011;395;48.132;11.608;2023-08-12T15:07:32;4.90;;;4.50;;
826;SDS011;395;48.132;11.608;2023-08-12T15:09:58;4.47;;;4.07;;
826;SDS011;395;48.132;11.608;2023-08-12T15:12:25;4.13;;;3.83;;
826;SDS011;395;48.132;11.608;2023-08-12T15:14:52;5.00;;;4.23;;
826;SDS011;395;48.132;11.608;2023-08-12T15:17:18;4.37;;;3.60;;
826;SDS011;395;48.132;11.608;2023-08-12T15:19:44;5.40;;;4.00;;
826;SDS011;395;48.132;11.608;2023-08-12T15:22:10;4.90;;;3.33;;
826;SDS011;395;48.132;11.608;2023-08-12T15:24:36;4.70;;;3.67;;
826;SDS011;395;48.132;11.608;2023-08-12T15:27:02;3.37;;;2.87;;
826;SDS011;395;48.132;11.608;2023-08-12T15:29:28;4.83;;;3.30;;
826;SDS011;395;48.132;11.608;2023-08-12T15:31:55;3.97;;;3.20;;
826;SDS011;395;48.132;11.608;2023-08-12T15:34:21;5.20;;;3.40;;
826;SDS011;395;48.132;11.608;2023-08-12T15:36:47;4.17;;;3.10;;
826;SDS011;395;48.132;11.608;2023-08-12T15:39:13;5.33;;;3.60;;